sensor_id;sensor_type;location;lat;lon;timestamp;temperature;humidity
1055;DHT22;516;51.482;7.120;2022-11-15T00:02:23;11.40;99.90
1055;DHT22;516;51.482;7.120;2022-11-15T00:08:11;11.50;99.90
1055;DHT22;516;51.482;7.120;2022-11-15T00:13:59;11.60;99.90
1055;DHT22;516;51.482;7.120;2022-11-15T00:19:39;11.70;99.90
1055;DHT22;516;51.482;7.120;2022-11-15T00:25:27;11.80;99.90
1055;DHT22;516;51.482;7.120;2022-11-15T00:31:15;12.00;99.90
1055;DHT22;516;51.482;7.120;2022-11-15T00:37:03;12.00;99.90
1055;DHT22;516;51.482;7.120;2022-11-15T00:42:51;12.10;99.90
1055;DHT22;516;51.482;7.120;2022-11-15T00:48:20;12.20;99.90
1055;DHT22;516;51.482;7.120;2022-11-15T00:54:08;12.10;99.90
1055;DHT22;516;51.482;7.120;2022-11-15T00:59:56;12.20;99.90
1055;DHT22;516;51.482;7.120;2022-11-15T01:05:43;12.40;99.90
1055;DHT22;516;51.482;7.120;2022-11-15T01:11:31;12.40;99.90
1055;DHT22;516;51.482;7.120;2022-11-15T01:17:19;12.50;99.90
1055;DHT22;516;51.482;7.120;2022-11-15T01:23:06;12.60;99.90
1055;DHT22;516;51.482;7.120;2022-11-15T01:28:54;12.60;99.90
1055;DHT22;516;51.482;7.120;2022-11-15T01:34:42;12.60;99.90
1055;DHT22;516;51.482;7.120;2022-11-15T01:40:29;12.60;99.90
1055;DHT22;516;51.482;7.120;2022-11-15T01:52:18;12.40;99.90
1055;DHT22;516;51.482;7.120;2022-11-15T01:58:07;12.40;99.90
1055;DHT22;516;51.482;7.120;2022-11-15T02:10:24;12.40;99.90
1055;DHT22;516;51.482;7.120;2022-11-15T02:36:02;12.70;99.90
1055;DHT22;516;51.482;7.120;2022-11-15T02:42:01;12.70;99.90
1055;DHT22;516;51.482;7.120;2022-11-15T02:47:52;12.50;99.90
1055;DHT22;516;51.482;7.120;2022-11-15T02:53:42;12.50;99.90
1055;DHT22;516;51.482;7.120;2022-11-15T03:06:35;12.50;99.90
1055;DHT22;516;51.482;7.120;2022-11-15T03:22:27;12.60;99.90
1055;DHT22;516;51.482;7.120;2022-11-15T03:28:23;12.60;99.90
1055;DHT22;516;51.482;7.120;2022-11-15T03:51:20;12.90;99.90
1055;DHT22;516;51.482;7.120;2022-11-15T03:57:07;12.80;99.90
1055;DHT22;516;51.482;7.120;2022-11-15T04:02:54;12.90;99.90
1055;DHT22;516;51.482;7.120;2022-11-15T04:08:42;12.80;99.90
1055;DHT22;516;51.482;7.120;2022-11-15T04:14:29;12.90;99.90
1055;DHT22;516;51.482;7.120;2022-11-15T04:17:19;12.90;99.90
1055;DHT22;516;51.482;7.120;2022-11-15T04:19:44;12.80;99.90
1055;DHT22;516;51.482;7.120;2022-11-15T04:25:52;12.90;99.90
1055;DHT22;516;51.482;7.120;2022-11-15T04:31:40;12.90;99.90
1055;DHT22;516;51.482;7.120;2022-11-15T04:37:28;13.00;99.90
1055;DHT22;516;51.482;7.120;2022-11-15T04:43:15;13.00;99.90
1055;DHT22;516;51.482;7.120;2022-11-15T04:49:03;13.00;99.90
1055;DHT22;516;51.482;7.120;2022-11-15T04:54:51;13.00;99.90
1055;DHT22;516;51.482;7.120;2022-11-15T05:00:38;13.00;99.90
1055;DHT22;516;51.482;7.120;2022-11-15T05:06:26;13.00;99.90
1055;DHT22;516;51.482;7.120;2022-11-15T05:12:15;13.00;99.90
1055;DHT22;516;51.482;7.120;2022-11-15T05:21:53;13.00;99.90
1055;DHT22;516;51.482;7.120;2022-11-15T05:27:42;12.90;99.90
1055;DHT22;516;51.482;7.120;2022-11-15T05:33:30;12.90;99.90
1055;DHT22;516;51.482;7.120;2022-11-15T05:39:18;12.80;99.90
1055;DHT22;516;51.482;7.120;2022-11-15T05:45:06;12.80;99.90
1055;DHT22;516;51.482;7.120;2022-11-15T05:50:57;12.60;99.90
1055;DHT22;516;51.482;7.120;2022-11-15T05:56:46;12.50;99.90
1055;DHT22;516;51.482;7.120;2022-11-15T06:02:33;12.50;99.90
1055;DHT22;516;51.482;7.120;2022-11-15T06:08:21;12.60;99.90
1055;DHT22;516;51.482;7.120;2022-11-15T06:14:09;12.60;99.90
1055;DHT22;516;51.482;7.120;2022-11-15T06:19:46;12.50;99.90
1055;DHT22;516;51.482;7.120;2022-11-15T06:25:34;12.50;99.90
1055;DHT22;516;51.482;7.120;2022-11-15T06:31:23;12.70;99.90
1055;DHT22;516;51.482;7.120;2022-11-15T06:36:53;12.80;99.90
1055;DHT22;516;51.482;7.120;2022-11-15T06:42:40;12.70;99.90
1055;DHT22;516;51.482;7.120;2022-11-15T06:48:29;12.80;99.90
1055;DHT22;516;51.482;7.120;2022-11-15T06:54:17;12.80;99.90
1055;DHT22;516;51.482;7.120;2022-11-15T07:00:06;12.90;99.90
1055;DHT22;516;51.482;7.120;2022-11-15T07:05:54;12.90;99.90
1055;DHT22;516;51.482;7.120;2022-11-15T07:11:42;13.00;99.90
1055;DHT22;516;51.482;7.120;2022-11-15T07:27:39;13.10;99.90
1055;DHT22;516;51.482;7.120;2022-11-15T07:33:27;13.20;99.90
1055;DHT22;516;51.482;7.120;2022-11-15T07:39:15;13.00;99.90
1055;DHT22;516;51.482;7.120;2022-11-15T07:45:03;13.00;99.90
1055;DHT22;516;51.482;7.120;2022-11-15T07:50:51;13.00;99.90
1055;DHT22;516;51.482;7.120;2022-11-15T07:56:38;12.90;99.90
1055;DHT22;516;51.482;7.120;2022-11-15T08:02:26;12.90;99.90
1055;DHT22;516;51.482;7.120;2022-11-15T08:08:14;13.20;99.90
1055;DHT22;516;51.482;7.120;2022-11-15T08:14:02;14.40;99.90
1055;DHT22;516;51.482;7.120;2022-11-15T08:19:46;14.30;99.90
1055;DHT22;516;51.482;7.120;2022-11-15T08:25:23;14.00;99.90
1055;DHT22;516;51.482;7.120;2022-11-15T08:31:15;14.20;99.90
1055;DHT22;516;51.482;7.120;2022-11-15T08:37:04;14.10;99.90
1055;DHT22;516;51.482;7.120;2022-11-15T08:42:52;14.00;99.90
1055;DHT22;516;51.482;7.120;2022-11-15T08:45:19;14.00;99.90
1055;DHT22;516;51.482;7.120;2022-11-15T08:47:44;13.90;99.90
1055;DHT22;516;51.482;7.120;2022-11-15T08:53:33;13.80;99.90
1055;DHT22;516;51.482;7.120;2022-11-15T08:59:21;13.80;99.90
1055;DHT22;516;51.482;7.120;2022-11-15T09:05:09;13.90;99.90
1055;DHT22;516;51.482;7.120;2022-11-15T09:10:57;13.60;99.90
1055;DHT22;516;51.482;7.120;2022-11-15T09:16:46;14.10;99.90
1055;DHT22;516;51.482;7.120;2022-11-15T09:22:33;14.60;99.90
1055;DHT22;516;51.482;7.120;2022-11-15T09:32:00;14.70;99.90
1055;DHT22;516;51.482;7.120;2022-11-15T09:37:47;14.80;99.90
1055;DHT22;516;51.482;7.120;2022-11-15T09:43:40;15.40;96.90
1055;DHT22;516;51.482;7.120;2022-11-15T09:49:31;16.90;72.70
1055;DHT22;516;51.482;7.120;2022-11-15T10:05:24;16.10;70.30
1055;DHT22;516;51.482;7.120;2022-11-15T10:27:08;16.30;57.90
1055;DHT22;516;51.482;7.120;2022-11-15T10:46:26;17.30;47.30
1055;DHT22;516;51.482;7.120;2022-11-15T10:52:20;17.80;39.80
1055;DHT22;516;51.482;7.120;2022-11-15T10:58:30;17.80;39.20
1055;DHT22;516;51.482;7.120;2022-11-15T11:04:18;18.80;38.00
1055;DHT22;516;51.482;7.120;2022-11-15T11:10:21;18.30;37.30
1055;DHT22;516;51.482;7.120;2022-11-15T11:53:13;19.80;22.30
1055;DHT22;516;51.482;7.120;2022-11-15T11:58:54;18.20;22.70
1055;DHT22;516;51.482;7.120;2022-11-15T12:04:48;17.50;23.80
1055;DHT22;516;51.482;7.120;2022-11-15T12:10:37;19.30;22.00
1055;DHT22;516;51.482;7.120;2022-11-15T12:16:29;18.70;21.50
1055;DHT22;516;51.482;7.120;2022-11-15T12:22:18;18.10;21.90
1055;DHT22;516;51.482;7.120;2022-11-15T12:40:35;20.00;18.80
1055;DHT22;516;51.482;7.120;2022-11-15T12:52:18;17.50;21.10
1055;DHT22;516;51.482;7.120;2022-11-15T12:58:27;16.90;21.30
1055;DHT22;516;51.482;7.120;2022-11-15T13:16:01;18.00;21.50
1055;DHT22;516;51.482;7.120;2022-11-15T13:21:49;18.30;22.60
1055;DHT22;516;51.482;7.120;2022-11-15T13:27:56;17.60;22.60
1055;DHT22;516;51.482;7.120;2022-11-15T13:36:51;15.80;27.80
1055;DHT22;516;51.482;7.120;2022-11-15T13:42:39;15.40;29.50
1055;DHT22;516;51.482;7.120;2022-11-15T13:48:29;15.50;30.20
1055;DHT22;516;51.482;7.120;2022-11-15T13:54:25;14.90;31.30
1055;DHT22;516;51.482;7.120;2022-11-15T14:00:26;15.00;33.50
1055;DHT22;516;51.482;7.120;2022-11-15T14:06:17;14.60;35.60
1055;DHT22;516;51.482;7.120;2022-11-15T14:12:32;14.60;38.70
1055;DHT22;516;51.482;7.120;2022-11-15T14:18:49;14.50;42.80
1055;DHT22;516;51.482;7.120;2022-11-15T14:24:38;14.60;45.70
1055;DHT22;516;51.482;7.120;2022-11-15T14:30:25;14.50;50.40
1055;DHT22;516;51.482;7.120;2022-11-15T14:36:19;14.40;56.10
1055;DHT22;516;51.482;7.120;2022-11-15T14:42:09;14.30;59.60
1055;DHT22;516;51.482;7.120;2022-11-15T14:47:57;14.20;66.70
1055;DHT22;516;51.482;7.120;2022-11-15T14:53:45;14.10;72.50
1055;DHT22;516;51.482;7.120;2022-11-15T14:59:33;14.10;77.80
1055;DHT22;516;51.482;7.120;2022-11-15T15:05:24;14.00;82.10
1055;DHT22;516;51.482;7.120;2022-11-15T15:17:44;14.00;86.50
1055;DHT22;516;51.482;7.120;2022-11-15T15:23:33;13.80;91.60
1055;DHT22;516;51.482;7.120;2022-11-15T15:28:59;13.80;92.60
1055;DHT22;516;51.482;7.120;2022-11-15T15:34:46;13.80;93.10
1055;DHT22;516;51.482;7.120;2022-11-15T15:40:34;13.90;92.70
1055;DHT22;516;51.482;7.120;2022-11-15T15:46:22;13.90;92.70
1055;DHT22;516;51.482;7.120;2022-11-15T15:52:09;14.00;91.90
1055;DHT22;516;51.482;7.120;2022-11-15T15:57:57;13.90;93.10
1055;DHT22;516;51.482;7.120;2022-11-15T16:03:45;13.80;93.60
1055;DHT22;516;51.482;7.120;2022-11-15T16:09:33;13.90;93.50
1055;DHT22;516;51.482;7.120;2022-11-15T16:15:40;13.80;95.20
1055;DHT22;516;51.482;7.120;2022-11-15T16:21:28;13.80;95.70
1055;DHT22;516;51.482;7.120;2022-11-15T16:36:51;13.80;98.50
1055;DHT22;516;51.482;7.120;2022-11-15T16:42:39;13.80;99.70
1055;DHT22;516;51.482;7.120;2022-11-15T16:48:27;13.80;99.90
1055;DHT22;516;51.482;7.120;2022-11-15T16:54:15;13.80;99.90
1055;DHT22;516;51.482;7.120;2022-11-15T17:00:03;13.90;99.90
1055;DHT22;516;51.482;7.120;2022-11-15T17:05:51;14.00;99.90
1055;DHT22;516;51.482;7.120;2022-11-15T17:11:40;13.90;99.90
1055;DHT22;516;51.482;7.120;2022-11-15T17:17:28;13.90;99.90
1055;DHT22;516;51.482;7.120;2022-11-15T17:23:15;14.00;99.90
1055;DHT22;516;51.482;7.120;2022-11-15T17:28:58;14.00;99.90
1055;DHT22;516;51.482;7.120;2022-11-15T17:34:47;14.10;99.90
1055;DHT22;516;51.482;7.120;2022-11-15T17:40:35;14.10;99.90
1055;DHT22;516;51.482;7.120;2022-11-15T17:46:23;14.10;99.90
1055;DHT22;516;51.482;7.120;2022-11-15T17:52:11;14.10;99.90
1055;DHT22;516;51.482;7.120;2022-11-15T17:57:58;14.20;99.90
1055;DHT22;516;51.482;7.120;2022-11-15T18:03:46;14.10;99.90
1055;DHT22;516;51.482;7.120;2022-11-15T18:09:34;14.10;99.90
1055;DHT22;516;51.482;7.120;2022-11-15T18:15:22;14.20;99.90
1055;DHT22;516;51.482;7.120;2022-11-15T18:37:38;14.30;99.90
1055;DHT22;516;51.482;7.120;2022-11-15T18:43:25;14.30;99.90
1055;DHT22;516;51.482;7.120;2022-11-15T18:49:14;14.40;99.90
1055;DHT22;516;51.482;7.120;2022-11-15T18:55:07;14.30;99.90
1055;DHT22;516;51.482;7.120;2022-11-15T19:17:39;14.20;99.90
1055;DHT22;516;51.482;7.120;2022-11-15T19:23:27;14.10;99.90
1055;DHT22;516;51.482;7.120;2022-11-15T19:29:00;14.00;99.90
1055;DHT22;516;51.482;7.120;2022-11-15T19:34:48;13.90;99.90
1055;DHT22;516;51.482;7.120;2022-11-15T19:40:36;13.80;99.90
1055;DHT22;516;51.482;7.120;2022-11-15T19:46:23;13.80;99.90
1055;DHT22;516;51.482;7.120;2022-11-15T19:48:53;13.80;99.90
1055;DHT22;516;51.482;7.120;2022-11-15T19:51:20;13.70;99.90
1055;DHT22;516;51.482;7.120;2022-11-15T19:57:11;13.60;99.90
1055;DHT22;516;51.482;7.120;2022-11-15T20:02:59;13.50;99.90
1055;DHT22;516;51.482;7.120;2022-11-15T20:08:47;13.30;99.90
1055;DHT22;516;51.482;7.120;2022-11-15T20:14:36;13.30;99.90
1055;DHT22;516;51.482;7.120;2022-11-15T20:20:24;13.20;99.90
1055;DHT22;516;51.482;7.120;2022-11-15T20:26:12;13.20;99.90
1055;DHT22;516;51.482;7.120;2022-11-15T20:32:00;13.10;99.90
1055;DHT22;516;51.482;7.120;2022-11-15T20:37:48;13.20;99.90
1055;DHT22;516;51.482;7.120;2022-11-15T20:43:35;13.30;99.90
1055;DHT22;516;51.482;7.120;2022-11-15T20:49:24;13.30;99.90
1055;DHT22;516;51.482;7.120;2022-11-15T20:55:12;13.20;99.90
1055;DHT22;516;51.482;7.120;2022-11-15T21:01:00;13.20;99.90
1055;DHT22;516;51.482;7.120;2022-11-15T21:06:47;13.10;99.90
1055;DHT22;516;51.482;7.120;2022-11-15T21:12:35;13.10;99.90
1055;DHT22;516;51.482;7.120;2022-11-15T21:18:24;13.20;99.90
1055;DHT22;516;51.482;7.120;2022-11-15T21:24:12;13.20;99.90
1055;DHT22;516;51.482;7.120;2022-11-15T21:26:38;13.20;99.90
1055;DHT22;516;51.482;7.120;2022-11-15T21:29:04;13.20;99.90
1055;DHT22;516;51.482;7.120;2022-11-15T21:34:51;13.20;99.90
1055;DHT22;516;51.482;7.120;2022-11-15T21:40:40;13.10;99.90
1055;DHT22;516;51.482;7.120;2022-11-15T21:46:29;13.00;99.90
1055;DHT22;516;51.482;7.120;2022-11-15T21:52:17;13.10;99.90
1055;DHT22;516;51.482;7.120;2022-11-15T21:58:06;13.10;99.90
1055;DHT22;516;51.482;7.120;2022-11-15T22:03:54;13.00;99.90
1055;DHT22;516;51.482;7.120;2022-11-15T22:09:42;13.10;99.90
1055;DHT22;516;51.482;7.120;2022-11-15T22:15:30;13.00;99.90
1055;DHT22;516;51.482;7.120;2022-11-15T22:21:18;12.90;99.90
1055;DHT22;516;51.482;7.120;2022-11-15T22:31:06;12.80;99.90
1055;DHT22;516;51.482;7.120;2022-11-15T22:36:54;12.80;99.90
1055;DHT22;516;51.482;7.120;2022-11-15T22:42:42;12.80;99.90
1055;DHT22;516;51.482;7.120;2022-11-15T22:48:32;12.70;99.90
1055;DHT22;516;51.482;7.120;2022-11-15T22:54:20;12.70;99.90
1055;DHT22;516;51.482;7.120;2022-11-15T23:00:15;12.70;99.90
1055;DHT22;516;51.482;7.120;2022-11-15T23:03:50;12.70;99.90
1055;DHT22;516;51.482;7.120;2022-11-15T23:09:38;12.80;99.90
1055;DHT22;516;51.482;7.120;2022-11-15T23:15:26;12.70;99.90
1055;DHT22;516;51.482;7.120;2022-11-15T23:21:36;12.70;99.90
1055;DHT22;516;51.482;7.120;2022-11-15T23:31:06;12.50;99.90
1055;DHT22;516;51.482;7.120;2022-11-15T23:37:14;12.50;99.90
1055;DHT22;516;51.482;7.120;2022-11-15T23:43:02;12.50;99.90
1055;DHT22;516;51.482;7.120;2022-11-15T23:48:49;12.50;99.90
1055;DHT22;516;51.482;7.120;2022-11-15T23:54:37;12.50;99.90
